createdAt,value
2022-10-22T00:02:28.153Z,4.37
2022-10-22T00:05:00.115Z,4.17
2022-10-22T00:07:33.625Z,3.75
2022-10-22T00:10:07.841Z,4.15
2022-10-22T00:12:39.868Z,3.75
2022-10-22T00:15:13.110Z,3.83
2022-10-22T00:17:45.342Z,3.72
2022-10-22T00:20:17.912Z,3.60
2022-10-22T00:25:22.023Z,4.83
2022-10-22T00:27:53.991Z,3.45
2022-10-22T00:30:25.927Z,3.27
2022-10-22T00:32:58.019Z,3.95
2022-10-22T00:35:30.124Z,3.87
2022-10-22T00:38:02.159Z,3.83
2022-10-22T00:40:34.056Z,3.80
2022-10-22T00:43:06.062Z,3.58
2022-10-22T00:45:37.958Z,7.55
2022-10-22T00:48:24.089Z,3.80
2022-10-22T00:51:07.693Z,2.92
2022-10-22T00:53:42.976Z,3.17
2022-10-22T00:56:15.248Z,3.62
2022-10-22T00:58:50.109Z,3.05
2022-10-22T01:01:28.156Z,3.12
2022-10-22T01:04:00.992Z,2.85
2022-10-22T01:06:35.158Z,2.90
2022-10-22T01:09:25.095Z,2.52
2022-10-22T01:12:02.771Z,3.58
2022-10-22T01:14:52.309Z,2.98
2022-10-22T01:17:30.060Z,3.45
2022-10-22T01:20:13.477Z,3.08
2022-10-22T01:22:50.984Z,2.98
2022-10-22T01:25:34.678Z,3.00
2022-10-22T01:28:31.840Z,2.98
2022-10-22T01:31:06.205Z,3.15
2022-10-22T01:33:38.623Z,3.30
2022-10-22T01:36:12.493Z,3.87
2022-10-22T01:38:45.842Z,4.22
2022-10-22T01:41:18.162Z,3.40
2022-10-22T01:43:50.102Z,3.50
2022-10-22T01:46:24.800Z,3.87
2022-10-22T01:49:08.563Z,4.17
2022-10-22T01:51:55.300Z,3.90
2022-10-22T01:54:32.624Z,4.22
2022-10-22T01:57:10.587Z,4.62
2022-10-22T02:00:03.285Z,4.42
2022-10-22T02:02:57.707Z,4.60
2022-10-22T02:05:35.424Z,4.78
2022-10-22T02:08:13.075Z,4.95
2022-10-22T02:10:47.929Z,4.83
2022-10-22T02:13:32.622Z,5.05
2022-10-22T02:16:07.629Z,5.17
2022-10-22T02:18:42.593Z,5.85
2022-10-22T02:21:15.662Z,5.12
2022-10-22T02:23:48.124Z,5.50
2022-10-22T02:26:25.948Z,5.47
2022-10-22T02:29:00.756Z,5.50
2022-10-22T02:31:35.794Z,5.78
2022-10-22T02:34:11.150Z,5.65
2022-10-22T02:36:48.048Z,5.35
2022-10-22T02:39:21.072Z,5.00
2022-10-22T02:41:53.368Z,5.22
2022-10-22T02:44:25.730Z,4.83
2022-10-22T02:46:58.098Z,5.33
2022-10-22T02:49:30.454Z,4.95
2022-10-22T02:52:02.410Z,5.20
2022-10-22T02:54:34.414Z,4.37
2022-10-22T02:57:06.362Z,5.03
2022-10-22T02:59:38.455Z,3.95
2022-10-22T03:02:10.394Z,4.92
2022-10-22T03:04:42.434Z,5.33
2022-10-22T03:07:14.645Z,5.10
2022-10-22T03:09:46.832Z,5.03
2022-10-22T03:12:18.782Z,4.58
2022-10-22T03:14:50.710Z,4.15
2022-10-22T03:17:22.824Z,4.65
2022-10-22T03:19:54.894Z,4.42
2022-10-22T03:22:32.704Z,3.85
2022-10-22T03:25:08.136Z,4.37
2022-10-22T03:27:41.737Z,4.30
2022-10-22T03:30:14.313Z,4.50
2022-10-22T03:32:46.679Z,3.90
2022-10-22T03:35:18.715Z,3.72
2022-10-22T03:37:51.252Z,3.77
2022-10-22T03:40:23.662Z,4.20
2022-10-22T03:42:55.801Z,3.77
2022-10-22T03:45:27.893Z,3.62
2022-10-22T03:48:00.023Z,4.08
2022-10-22T03:50:32.213Z,4.20
2022-10-22T03:53:05.022Z,3.98
2022-10-22T03:55:38.406Z,3.80
2022-10-22T03:58:10.382Z,4.00
2022-10-22T04:00:42.619Z,4.67
2022-10-22T04:03:14.914Z,4.05
2022-10-22T04:05:47.383Z,4.45
2022-10-22T04:08:19.265Z,4.60
2022-10-22T04:10:54.240Z,3.42
2022-10-22T04:13:26.446Z,3.42
2022-10-22T04:15:59.817Z,3.70
2022-10-22T04:18:31.777Z,3.72
2022-10-22T04:21:03.914Z,4.50
2022-10-22T04:23:35.892Z,4.92
2022-10-22T04:26:09.386Z,3.30
2022-10-22T04:28:41.319Z,3.60
2022-10-22T04:31:15.647Z,4.30
2022-10-22T04:33:48.105Z,3.52
2022-10-22T04:36:20.807Z,3.52
2022-10-22T04:38:57.845Z,3.40
2022-10-22T04:41:38.072Z,3.85
2022-10-22T04:44:12.480Z,3.52
2022-10-22T04:46:43.665Z,3.57
2022-10-22T04:49:15.674Z,3.70
2022-10-22T04:51:47.897Z,4.35
2022-10-22T04:54:19.998Z,3.62
2022-10-22T04:56:52.091Z,4.95
2022-10-22T04:59:23.974Z,4.20
2022-10-22T05:01:56.110Z,2.70
2022-10-22T05:04:27.942Z,2.75
2022-10-22T05:07:00.045Z,2.50
2022-10-22T05:09:32.036Z,2.33
2022-10-22T05:12:03.930Z,3.27
2022-10-22T05:14:36.139Z,2.77
2022-10-22T05:17:08.194Z,3.30
2022-10-22T05:19:40.127Z,3.55
2022-10-22T05:22:12.387Z,3.58
2022-10-22T05:24:44.544Z,3.22
2022-10-22T05:27:16.743Z,3.62
2022-10-22T05:29:49.106Z,3.90
2022-10-22T05:32:21.144Z,5.28
2022-10-22T05:34:53.212Z,4.08
2022-10-22T05:37:25.396Z,4.00
2022-10-22T05:40:06.664Z,4.03
2022-10-22T05:42:34.691Z,3.83
2022-10-22T05:45:08.298Z,6.37
2022-10-22T05:47:40.259Z,4.70
2022-10-22T05:50:12.218Z,4.58
2022-10-22T05:52:44.588Z,4.78
2022-10-22T05:55:17.033Z,4.67
2022-10-22T05:57:50.330Z,5.15
2022-10-22T06:00:22.584Z,4.75
2022-10-22T06:02:54.457Z,4.67
2022-10-22T06:05:26.444Z,5.15
2022-10-22T06:07:59.222Z,4.25
2022-10-22T06:10:31.565Z,4.95
2022-10-22T06:13:05.204Z,6.08
2022-10-22T06:15:37.161Z,5.28
2022-10-22T06:18:09.476Z,4.40
2022-10-22T06:20:43.270Z,4.78
2022-10-22T06:23:15.684Z,3.10
2022-10-22T06:25:58.571Z,6.97
2022-10-22T06:28:30.930Z,4.65
2022-10-22T06:31:04.745Z,3.87
2022-10-22T06:33:38.320Z,4.00
2022-10-22T06:36:15.741Z,4.47
2022-10-22T06:38:48.168Z,4.08
2022-10-22T06:41:21.323Z,4.95
2022-10-22T06:43:57.841Z,3.95
2022-10-22T06:46:32.111Z,4.85
2022-10-22T06:49:05.981Z,2.90
2022-10-22T06:51:37.991Z,2.83
2022-10-22T06:54:09.980Z,3.20
2022-10-22T06:56:41.951Z,3.33
2022-10-22T06:59:14.153Z,4.12
2022-10-22T07:01:46.222Z,3.20
2022-10-22T07:04:19.166Z,8.08
2022-10-22T07:06:51.046Z,4.00
2022-10-22T07:09:23.164Z,3.08
2022-10-22T07:11:55.296Z,3.50
2022-10-22T07:14:27.438Z,3.00
2022-10-22T07:16:59.631Z,3.52
2022-10-22T07:19:31.699Z,2.75
2022-10-22T07:22:04.151Z,2.77
2022-10-22T07:24:36.139Z,3.05
2022-10-22T07:27:10.947Z,3.87
2022-10-22T07:29:41.994Z,2.85
2022-10-22T07:32:14.049Z,2.65
2022-10-22T07:34:46.053Z,5.87
2022-10-22T07:37:19.733Z,3.15
2022-10-22T07:39:51.985Z,3.70
2022-10-22T07:42:24.068Z,3.30
2022-10-22T07:44:56.181Z,4.03
2022-10-22T07:47:28.263Z,4.15
2022-10-22T07:50:00.645Z,3.35
2022-10-22T07:52:32.934Z,4.20
2022-10-22T07:55:05.349Z,4.33
2022-10-22T07:57:37.641Z,3.80
2022-10-22T08:00:11.271Z,3.95
2022-10-22T08:02:45.170Z,5.65
2022-10-22T08:05:17.326Z,4.10
2022-10-22T08:07:49.204Z,2.62
2022-10-22T08:10:21.158Z,2.47
2022-10-22T08:12:53.625Z,2.50
2022-10-22T08:15:27.337Z,2.27
2022-10-22T08:17:59.793Z,2.77
2022-10-22T08:20:32.126Z,4.60
2022-10-22T08:23:04.048Z,2.77
2022-10-22T08:25:36.146Z,2.95
2022-10-22T08:28:08.205Z,2.80
2022-10-22T08:30:40.649Z,3.00
2022-10-22T08:33:12.849Z,2.02
2022-10-22T08:35:49.836Z,2.17
2022-10-22T08:38:21.869Z,2.15
2022-10-22T08:40:56.886Z,2.83
2022-10-22T08:43:40.746Z,3.35
2022-10-22T08:46:36.819Z,2.30
2022-10-22T08:49:11.654Z,3.15
2022-10-22T08:51:44.187Z,2.47
2022-10-22T08:54:47.912Z,3.20
2022-10-22T08:57:51.377Z,2.55
2022-10-22T09:00:27.482Z,2.83
2022-10-22T09:03:37.025Z,2.25
2022-10-22T09:06:18.830Z,2.50
2022-10-22T09:08:51.613Z,2.70
2022-10-22T09:11:32.262Z,2.40
2022-10-22T09:14:05.905Z,2.95
2022-10-22T09:17:01.400Z,2.98
2022-10-22T09:19:39.183Z,3.00
2022-10-22T09:22:29.282Z,3.12
2022-10-22T09:25:16.323Z,2.70
2022-10-22T09:27:49.269Z,2.90
2022-10-22T09:30:25.350Z,2.77
2022-10-22T09:33:21.312Z,2.30
2022-10-22T09:36:02.098Z,2.40
2022-10-22T09:38:36.868Z,3.00
2022-10-22T09:43:39.898Z,3.30
2022-10-22T09:46:18.175Z,4.03
2022-10-22T09:49:01.778Z,4.55
2022-10-22T09:51:44.818Z,3.52
2022-10-22T09:54:22.606Z,2.40
2022-10-22T09:57:00.543Z,2.72
2022-10-22T09:59:36.087Z,3.12
2022-10-22T10:02:20.373Z,3.08
2022-10-22T10:04:53.188Z,2.00
2022-10-22T10:07:28.718Z,3.83
2022-10-22T10:10:00.990Z,2.75
2022-10-22T10:12:42.365Z,2.85
2022-10-22T10:15:23.493Z,2.58
2022-10-22T10:18:21.506Z,2.20
2022-10-22T10:21:02.428Z,2.17
2022-10-22T10:23:40.226Z,2.50
2022-10-22T10:26:17.890Z,3.25
2022-10-22T10:29:08.766Z,3.58
2022-10-22T10:32:02.151Z,3.45
2022-10-22T10:34:55.170Z,2.58
2022-10-22T10:37:30.422Z,2.85
2022-10-22T10:40:29.011Z,3.22
2022-10-22T10:43:06.762Z,3.30
2022-10-22T10:46:10.106Z,3.85
2022-10-22T10:48:59.961Z,4.22
2022-10-22T10:51:41.012Z,3.35
2022-10-22T10:54:28.308Z,2.80
2022-10-22T10:57:03.334Z,2.55
2022-10-22T10:59:38.103Z,2.17
2022-10-22T11:02:19.486Z,2.65
2022-10-22T11:05:03.436Z,2.20
2022-10-22T11:07:38.293Z,2.65
2022-10-22T11:10:33.814Z,2.47
2022-10-22T11:13:08.940Z,3.25
2022-10-22T11:15:43.632Z,2.60
2022-10-22T11:18:33.294Z,3.30
2022-10-22T11:21:08.379Z,2.85
2022-10-22T11:23:43.476Z,4.22
2022-10-22T11:26:30.622Z,3.37
2022-10-22T11:29:04.839Z,3.45
2022-10-22T11:31:37.637Z,3.33
2022-10-22T11:34:34.475Z,3.70
2022-10-22T11:37:06.316Z,3.67
2022-10-22T11:39:44.379Z,3.72
2022-10-22T11:42:25.259Z,3.40
2022-10-22T11:45:03.285Z,3.10
2022-10-22T11:47:38.051Z,2.98
2022-10-22T11:50:25.610Z,3.20
2022-10-22T11:53:03.312Z,2.95
2022-10-22T11:55:48.702Z,2.67
2022-10-22T11:58:39.530Z,3.02
2022-10-22T12:01:14.374Z,3.50
2022-10-22T12:03:52.615Z,3.65
2022-10-22T12:06:27.203Z,3.92
2022-10-22T12:09:03.857Z,3.02
2022-10-22T12:11:44.767Z,3.00
2022-10-22T12:14:24.256Z,2.60
2022-10-22T12:17:05.347Z,3.40
2022-10-22T12:19:51.938Z,2.87
2022-10-22T12:22:27.094Z,2.60
2022-10-22T12:25:05.142Z,3.00
2022-10-22T12:27:40.194Z,3.50
2022-10-22T12:30:30.276Z,2.90
2022-10-22T12:33:04.720Z,2.80
2022-10-22T12:38:15.510Z,2.80
2022-10-22T12:40:48.920Z,3.15
2022-10-22T12:43:30.478Z,4.00
2022-10-22T12:46:03.064Z,3.30
2022-10-22T12:48:38.197Z,3.60
2022-10-22T12:51:11.918Z,3.70
2022-10-22T12:53:50.087Z,3.75
2022-10-22T12:56:35.857Z,3.17
2022-10-22T12:59:22.964Z,3.00
2022-10-22T13:01:56.221Z,2.15
2022-10-22T13:04:34.172Z,2.27
2022-10-22T13:07:19.924Z,1.72
2022-10-22T13:10:00.475Z,2.27
2022-10-22T13:12:39.334Z,1.37
2022-10-22T13:15:23.865Z,1.95
2022-10-22T13:18:08.396Z,1.77
2022-10-22T13:20:43.665Z,1.80
2022-10-22T13:23:24.159Z,1.85
2022-10-22T13:26:05.587Z,1.37
2022-10-22T13:28:37.692Z,1.82
2022-10-22T13:31:27.423Z,1.50
2022-10-22T13:34:08.404Z,1.80
2022-10-22T13:36:38.349Z,2.10
2022-10-22T13:39:22.446Z,1.52
2022-10-22T13:41:54.493Z,1.90
2022-10-22T13:44:26.709Z,2.30
2022-10-22T13:46:58.692Z,1.85
2022-10-22T13:49:30.977Z,2.27
2022-10-22T13:52:03.030Z,1.70
2022-10-22T13:54:35.611Z,1.65
2022-10-22T13:57:10.295Z,1.95
2022-10-22T13:59:42.529Z,2.25
2022-10-22T14:02:16.502Z,2.50
2022-10-22T14:04:48.488Z,2.05
2022-10-22T14:07:20.876Z,2.00
2022-10-22T14:09:52.727Z,2.00
2022-10-22T14:12:25.273Z,1.55
2022-10-22T14:17:31.691Z,1.35
2022-10-22T14:20:03.927Z,1.62
2022-10-22T14:22:35.385Z,1.42
2022-10-22T14:25:07.867Z,1.25
2022-10-22T14:27:40.530Z,1.77
2022-10-22T14:30:18.444Z,1.60
2022-10-22T14:32:51.436Z,2.37
2022-10-22T14:35:24.091Z,1.80
2022-10-22T14:37:57.857Z,2.10
2022-10-22T14:40:30.586Z,1.80
2022-10-22T14:43:02.757Z,6.17
2022-10-22T14:45:35.115Z,2.30
2022-10-22T14:48:08.364Z,2.50
2022-10-22T14:50:40.636Z,2.70
2022-10-22T14:53:13.968Z,3.02
2022-10-22T14:55:49.355Z,3.15
2022-10-22T14:58:21.457Z,3.17
2022-10-22T15:00:53.809Z,3.45
2022-10-22T15:03:26.005Z,3.60
2022-10-22T15:05:58.312Z,3.58
2022-10-22T15:08:31.716Z,4.17
2022-10-22T15:11:09.776Z,3.87
2022-10-22T15:13:42.297Z,3.25
2022-10-22T15:16:18.407Z,3.90
2022-10-22T15:18:50.625Z,3.70
2022-10-22T15:21:24.336Z,3.00
2022-10-22T15:23:56.467Z,4.03
2022-10-22T15:26:29.341Z,9.60
2022-10-22T15:29:04.294Z,3.15
2022-10-22T15:31:54.083Z,3.50
2022-10-22T15:34:29.715Z,3.55
2022-10-22T15:37:05.091Z,3.30
2022-10-22T15:39:38.922Z,3.37
2022-10-22T15:42:11.606Z,3.52
2022-10-22T15:44:43.712Z,3.98
2022-10-22T15:47:15.784Z,3.20
2022-10-22T15:49:47.945Z,3.67
2022-10-22T15:52:21.855Z,3.80
2022-10-22T15:54:53.953Z,3.90
2022-10-22T15:57:26.383Z,3.62
2022-10-22T15:59:58.392Z,4.20
2022-10-22T16:02:31.258Z,4.22
2022-10-22T16:05:03.628Z,3.77
2022-10-22T16:07:35.638Z,4.33
2022-10-22T16:10:08.303Z,3.65
2022-10-22T16:12:41.565Z,3.62
2022-10-22T16:15:13.858Z,3.80
2022-10-22T16:17:45.874Z,4.28
2022-10-22T16:20:17.909Z,4.55
2022-10-22T16:22:51.261Z,5.65
2022-10-22T16:25:23.276Z,4.15
2022-10-22T16:27:55.132Z,4.47
2022-10-22T16:30:27.271Z,4.12
2022-10-22T16:33:00.859Z,4.75
2022-10-22T16:35:33.678Z,3.67
2022-10-22T16:38:07.106Z,3.72
2022-10-22T16:40:39.239Z,4.15
2022-10-22T16:43:11.326Z,4.42
2022-10-22T16:45:51.361Z,3.45
2022-10-22T16:48:23.279Z,3.83
2022-10-22T16:50:55.208Z,5.17
2022-10-22T16:53:27.223Z,4.45
2022-10-22T16:55:59.364Z,4.03
2022-10-22T16:58:31.892Z,4.60
2022-10-22T17:01:09.302Z,4.28
2022-10-22T17:03:41.550Z,4.10
2022-10-22T17:06:13.895Z,4.08
2022-10-22T17:08:46.057Z,4.12
2022-10-22T17:11:20.825Z,4.20
2022-10-22T17:13:55.438Z,3.92
2022-10-22T17:16:27.245Z,3.83
2022-10-22T17:18:59.425Z,3.37
2022-10-22T17:21:31.333Z,3.77
2022-10-22T17:24:03.398Z,3.52
2022-10-22T17:26:36.954Z,3.52
2022-10-22T17:29:09.257Z,3.93
2022-10-22T17:31:41.795Z,3.40
2022-10-22T17:34:16.960Z,3.80
2022-10-22T17:36:50.255Z,3.58
2022-10-22T17:39:22.143Z,3.55
2022-10-22T17:41:54.540Z,4.28
2022-10-22T17:44:26.759Z,4.10
2022-10-22T17:47:00.330Z,3.80
2022-10-22T17:49:32.373Z,3.70
2022-10-22T17:52:04.268Z,3.87
2022-10-22T17:54:37.235Z,3.77
2022-10-22T17:57:09.797Z,3.60
2022-10-22T17:59:41.928Z,4.20
2022-10-22T18:02:18.897Z,4.22
2022-10-22T18:04:54.066Z,4.58
2022-10-22T18:07:26.039Z,4.45
2022-10-22T18:09:57.950Z,3.65
2022-10-22T18:12:30.018Z,4.20
2022-10-22T18:15:01.954Z,4.58
2022-10-22T18:17:35.966Z,4.45
2022-10-22T18:20:08.175Z,3.87
2022-10-22T18:22:41.513Z,4.22
2022-10-22T18:25:13.895Z,3.65
2022-10-22T18:27:46.383Z,4.53
2022-10-22T18:30:18.487Z,3.75
2022-10-22T18:32:51.871Z,4.25
2022-10-22T18:35:23.820Z,4.05
2022-10-22T18:37:55.769Z,4.35
2022-10-22T18:40:29.393Z,4.12
2022-10-22T18:43:01.333Z,3.73
2022-10-22T18:45:34.523Z,4.17
2022-10-22T18:48:06.582Z,4.35
2022-10-22T18:50:38.503Z,3.70
2022-10-22T18:53:11.067Z,4.50
2022-10-22T18:55:43.095Z,3.45
2022-10-22T18:58:15.205Z,5.72
2022-10-22T19:00:47.594Z,4.53
2022-10-22T19:03:19.477Z,4.53
2022-10-22T19:05:54.885Z,4.47
2022-10-22T19:08:27.575Z,4.50
2022-10-22T19:10:59.973Z,4.95
2022-10-22T19:13:31.999Z,4.12
2022-10-22T19:16:05.145Z,4.80
2022-10-22T19:18:40.051Z,5.15
2022-10-22T19:21:13.402Z,4.50
2022-10-22T19:26:21.123Z,5.15
2022-10-22T19:28:54.109Z,5.35
2022-10-22T19:31:30.006Z,4.45
2022-10-22T19:34:03.065Z,4.25
2022-10-22T19:36:35.636Z,4.45
2022-10-22T19:39:08.948Z,3.95
2022-10-22T19:41:40.908Z,3.80
2022-10-22T19:44:13.100Z,3.85
2022-10-22T19:46:45.009Z,3.80
2022-10-22T19:49:20.380Z,4.53
2022-10-22T19:51:50.749Z,5.17
2022-10-22T19:54:22.719Z,3.90
2022-10-22T19:56:54.661Z,4.53
2022-10-22T19:59:29.964Z,3.70
2022-10-22T20:02:01.570Z,3.60
2022-10-22T20:04:34.079Z,3.80
2022-10-22T20:07:06.296Z,3.60
2022-10-22T20:09:38.483Z,3.52
2022-10-22T20:12:10.299Z,3.77
2022-10-22T20:14:42.335Z,3.67
2022-10-22T20:17:14.478Z,3.62
2022-10-22T20:19:46.414Z,3.92
2022-10-22T20:22:18.916Z,3.55
2022-10-22T20:24:51.015Z,3.25
2022-10-22T20:27:23.220Z,3.55
2022-10-22T20:29:55.237Z,3.55
2022-10-22T20:32:28.092Z,4.33
2022-10-22T20:35:00.509Z,4.22
2022-10-22T20:37:33.474Z,4.58
2022-10-22T20:40:05.596Z,3.92
2022-10-22T20:42:37.967Z,4.30
2022-10-22T20:45:10.291Z,4.03
2022-10-22T20:47:58.266Z,4.62
2022-10-22T20:50:16.171Z,4.00
2022-10-22T20:52:48.619Z,3.92
2022-10-22T20:55:21.252Z,3.60
2022-10-22T20:57:53.282Z,4.00
2022-10-22T21:00:25.203Z,3.85
2022-10-22T21:02:57.097Z,3.90
2022-10-22T21:05:29.099Z,3.58
2022-10-22T21:08:02.375Z,4.08
2022-10-22T21:10:34.932Z,3.58
2022-10-22T21:13:07.037Z,3.95
2022-10-22T21:15:39.255Z,4.00
2022-10-22T21:18:11.191Z,3.85
2022-10-22T21:20:43.442Z,3.65
2022-10-22T21:23:15.391Z,3.83
2022-10-22T21:25:58.011Z,3.90
2022-10-22T21:31:02.889Z,4.10
2022-10-22T21:33:37.469Z,4.05
2022-10-22T21:38:40.840Z,3.92
2022-10-22T21:41:15.682Z,4.17
2022-10-22T21:43:47.895Z,3.83
2022-10-22T21:46:22.282Z,4.03
2022-10-22T21:48:57.031Z,4.30
2022-10-22T21:51:29.951Z,4.22
2022-10-22T21:54:01.923Z,3.87
2022-10-22T21:56:36.113Z,3.30
2022-10-22T21:59:08.617Z,4.10
2022-10-22T22:01:40.602Z,3.50
2022-10-22T22:04:12.590Z,3.52
2022-10-22T22:06:44.555Z,4.00
2022-10-22T22:09:16.646Z,3.30
2022-10-22T22:11:48.877Z,3.58
2022-10-22T22:14:20.789Z,3.42
2022-10-22T22:16:52.887Z,3.83
2022-10-22T22:19:24.797Z,3.80
2022-10-22T22:21:56.698Z,4.05
2022-10-22T22:24:28.594Z,3.65
2022-10-22T22:27:00.609Z,3.45
2022-10-22T22:29:32.484Z,3.90
2022-10-22T22:32:04.395Z,3.90
2022-10-22T22:34:36.343Z,4.00
2022-10-22T22:37:09.092Z,3.70
2022-10-22T22:39:41.036Z,4.05
2022-10-22T22:42:13.048Z,4.12
2022-10-22T22:44:44.949Z,4.83
2022-10-22T22:47:17.602Z,3.52
2022-10-22T22:49:49.943Z,3.77
2022-10-22T22:52:21.960Z,4.15
2022-10-22T22:54:53.951Z,4.37
2022-10-22T22:57:25.961Z,4.22
2022-10-22T22:59:58.064Z,4.30
2022-10-22T23:02:29.898Z,4.28
2022-10-22T23:05:02.342Z,4.33
2022-10-22T23:07:34.342Z,4.45
2022-10-22T23:10:06.731Z,4.17
2022-10-22T23:12:38.890Z,4.30
2022-10-22T23:15:11.360Z,4.15
2022-10-22T23:17:43.355Z,4.72
2022-10-22T23:20:33.018Z,4.20
2022-10-22T23:23:06.492Z,4.65
2022-10-22T23:25:38.706Z,4.40
2022-10-22T23:28:10.805Z,4.72
2022-10-22T23:30:45.272Z,5.30
2022-10-22T23:35:48.518Z,5.03
2022-10-22T23:38:20.463Z,4.95
2022-10-22T23:40:58.642Z,5.62
2022-10-22T23:43:30.798Z,5.22
2022-10-22T23:46:07.496Z,5.05
2022-10-22T23:48:40.401Z,4.30
2022-10-22T23:51:15.852Z,4.60
2022-10-22T23:53:48.346Z,5.50
2022-10-22T23:56:20.252Z,5.00
2022-10-22T23:58:53.818Z,4.95
